Time;durP1;ratioP1;P1;durP2;ratioP2;P2;SDS_P1;SDS_P2;PMS_P1;PMS_P2;Temp;Humidity;BMP_temperature;BMP_pressure;BME280_temperature;BME280_humidity;BME280_pressure;Samples;Min_cycle;Max_cycle;Signal;HPM_P1;HPM_P2
2023/03/13 00:02:04;;;;;;;10.40;4.70;;;6.40;99.90;;;-141.84;85.15;19021.31;5068616;28;20543;-77
2023/03/13 00:04:32;;;;;;;8.60;5.00;;;6.50;99.90;;;-141.84;84.97;18996.91;5070513;28;20197;-78
2023/03/13 00:07:00;;;;;;;8.67;5.07;;;6.40;99.90;;;-141.84;85.00;18980.66;5072211;28;20262;-76
2023/03/13 00:09:28;;;;;;;6.57;4.23;;;6.50;99.90;;;-141.84;84.78;19000.97;5071861;28;20200;-77
2023/03/13 00:11:57;;;;;;;13.27;5.50;;;6.50;99.90;;;-141.84;85.00;18988.78;5068892;28;20200;-77
2023/03/13 00:14:25;;;;;;;8.90;4.87;;;6.50;99.90;;;-141.84;84.74;19017.25;5071973;28;20197;-79
2023/03/13 00:16:54;;;;;;;11.13;4.77;;;6.60;99.90;;;-141.84;82.90;19049.75;5071637;28;20231;-76
2023/03/13 00:19:22;;;;;;;7.47;4.27;;;6.70;99.90;;;-141.84;83.40;19039.59;5071164;28;20288;-77
2023/03/13 00:21:50;;;;;;;9.87;4.73;;;6.60;99.90;;;-141.84;84.05;19013.16;5071301;28;20219;-77
2023/03/13 00:24:19;;;;;;;7.17;4.37;;;6.60;99.90;;;-141.84;84.40;19021.31;5071077;28;20209;-77
2023/03/13 00:26:47;;;;;;;11.40;5.07;;;6.60;99.90;;;-141.84;84.03;19015.19;5071670;28;20196;-75
2023/03/13 00:29:15;;;;;;;8.07;4.83;;;6.60;99.90;;;-141.84;83.31;19011.13;5071529;28;20193;-76
2023/03/13 00:31:43;;;;;;;9.07;4.70;;;6.60;99.90;;;-141.84;82.68;19033.50;5071586;28;20216;-78
2023/03/13 00:34:13;;;;;;;10.47;4.30;;;6.70;99.90;;;-141.84;82.72;19037.56;5071931;28;20226;-78
2023/03/13 00:36:41;;;;;;;8.00;4.57;;;6.70;99.90;;;-141.84;83.36;19013.16;5071802;28;20217;-79
2023/03/13 00:39:10;;;;;;;11.90;4.77;;;6.70;99.90;;;-141.84;83.13;19025.38;5071636;28;20220;-79
2023/03/13 00:41:38;;;;;;;9.90;4.77;;;6.70;99.90;;;-141.84;83.60;19029.44;5071920;28;20208;-79
2023/03/13 00:44:07;;;;;;;8.47;4.17;;;6.70;99.90;;;-141.84;83.31;19015.19;5071865;28;20197;-77
2023/03/13 00:46:35;;;;;;;7.23;4.27;;;6.70;99.90;;;-141.84;83.81;19033.50;5069844;28;20278;-75
2023/03/13 00:49:04;;;;;;;11.10;4.53;;;6.70;99.90;;;-141.84;83.59;18988.78;5070989;28;20207;-77
2023/03/13 00:51:35;;;;;;;11.07;4.83;;;6.70;99.90;;;-141.84;83.23;19045.69;5070684;28;20656;-77
2023/03/13 00:54:04;;;;;;;10.83;4.17;;;6.70;99.90;;;-141.84;83.12;19017.25;5068413;28;20196;-77
2023/03/13 00:56:32;;;;;;;12.23;5.10;;;6.80;99.90;;;-141.84;83.36;19017.25;5070784;28;20216;-77
2023/03/13 00:59:01;;;;;;;8.73;4.77;;;6.80;99.90;;;-141.84;83.45;19009.09;5071435;28;20197;-78
2023/03/13 01:01:32;;;;;;;11.13;4.53;;;6.80;99.90;;;-141.84;83.22;19029.44;5068360;28;20676;-77
2023/03/13 01:04:03;;;;;;;11.83;4.53;;;6.80;99.90;;;-141.84;83.05;19019.28;5071767;28;21086;-79
2023/03/13 01:06:36;;;;;;;11.43;4.53;;;6.80;99.90;;;-141.84;81.27;19110.72;5072879;28;20286;-78
2023/03/13 01:09:06;;;;;;;8.57;3.70;;;7.00;99.90;;;-141.84;81.27;19059.91;5072287;28;20197;-78
2023/03/13 01:11:38;;;;;;;10.07;4.60;;;7.00;99.90;;;-141.84;80.93;19066.00;5071950;28;20216;-80
2023/03/13 01:14:10;;;;;;;11.27;4.40;;;7.00;99.90;;;-141.84;81.04;19070.06;5071767;28;20209;-77
2023/03/13 01:16:39;;;;;;;14.57;4.80;;;7.10;99.90;;;-141.84;81.25;19084.28;5071890;28;20211;-78
2023/03/13 01:19:10;;;;;;;12.20;4.80;;;7.10;99.90;;;-141.84;80.68;19092.41;5068885;28;20292;-77
2023/03/13 01:21:44;;;;;;;9.47;4.20;;;7.10;99.90;;;-141.84;79.44;19084.28;5070760;28;20216;-78
2023/03/13 01:24:12;;;;;;;9.47;3.90;;;7.20;99.90;;;-141.84;79.29;19068.03;5069521;28;20215;-79
2023/03/13 01:26:41;;;;;;;11.93;4.47;;;7.20;99.90;;;-141.84;78.06;19096.47;5071470;28;20196;-78
2023/03/13 01:29:09;;;;;;;11.20;4.27;;;7.40;99.90;;;-141.84;78.18;19108.69;5071072;28;20205;-77
2023/03/13 01:31:37;;;;;;;10.17;3.97;;;7.40;99.90;;;-141.84;78.75;19122.91;5067212;28;20197;-79
2023/03/13 01:34:06;;;;;;;9.23;3.37;;;7.40;99.90;;;-141.84;77.73;19126.97;5069163;28;20204;-76
2023/03/13 01:36:37;;;;;;;9.23;3.63;;;7.40;99.90;;;-141.84;78.50;19090.38;5069731;28;20223;-78
2023/03/13 01:39:07;;;;;;;7.47;3.93;;;7.30;99.90;;;-141.84;79.17;19086.31;5071507;28;20193;-77
2023/03/13 01:41:37;;;;;;;11.03;3.73;;;7.30;99.90;;;-141.84;78.45;19118.84;5072139;28;20246;-77
2023/03/13 01:44:05;;;;;;;10.50;3.53;;;7.30;99.90;;;-141.84;78.73;19096.47;5071413;28;20227;-79
2023/03/13 01:46:34;;;;;;;11.43;4.07;;;7.30;99.90;;;-141.84;79.08;19080.22;5068618;28;20195;-78
2023/03/13 01:49:07;;;;;;;9.40;3.20;;;7.30;99.90;;;-141.84;79.15;19074.13;5070576;28;20204;-79
2023/03/13 01:51:42;;;;;;;8.00;3.20;;;7.30;99.90;;;-141.84;78.36;19106.66;5069652;28;20192;-78
2023/03/13 01:54:16;;;;;;;10.37;3.63;;;7.30;99.90;;;-141.84;78.41;19118.84;5069489;28;20712;-77
2023/03/13 01:56:50;;;;;;;10.03;4.00;;;7.30;99.90;;;-141.84;78.12;19135.09;5069669;28;20221;-77
2023/03/13 01:59:25;;;;;;;10.87;3.93;;;7.30;99.90;;;-141.84;78.32;19104.59;5066915;28;20205;-80
2023/03/13 02:02:00;;;;;;;8.60;3.50;;;7.30;99.90;;;-141.84;77.71;19096.47;5070354;28;20547;-78
2023/03/13 02:04:35;;;;;;;11.00;4.03;;;7.40;99.90;;;-141.84;77.75;19118.84;5069138;28;20200;-78
2023/03/13 02:07:13;;;;;;;9.47;3.83;;;7.40;99.90;;;-141.84;76.46;19124.94;5070722;28;20199;-78
2023/03/13 02:09:50;;;;;;;9.03;3.20;;;7.50;99.90;;;-141.84;76.21;19151.34;5070222;28;20193;-79
2023/03/13 02:12:29;;;;;;;8.97;3.60;;;7.50;99.90;;;-141.84;76.83;19124.94;5070656;28;20204;-78
2023/03/13 02:15:02;;;;;;;7.93;3.57;;;7.50;99.90;;;-141.84;77.10;19108.69;5070811;28;20188;-78
2023/03/13 02:17:33;;;;;;;9.60;3.23;;;7.50;99.90;;;-141.84;75.64;19181.81;5069954;28;20216;-81
2023/03/13 02:20:02;;;;;;;15.27;3.50;;;7.60;99.90;;;-141.84;75.10;19157.44;5069821;28;20243;-78
2023/03/13 02:22:43;;;;;;;14.47;3.87;;;7.70;99.90;;;-141.84;74.92;19129.00;5071109;28;20200;-78
2023/03/13 02:25:32;;;;;;;12.03;4.00;;;7.70;99.90;;;-141.84;75.84;19163.53;5073181;28;20197;-60
2023/03/13 02:28:07;;;;;;;9.30;3.50;;;7.70;99.90;;;-141.84;75.47;19183.84;5070630;28;20192;-60
2023/03/13 02:30:35;;;;;;;11.67;3.13;;;7.70;99.90;;;-141.84;74.97;19106.66;5073321;28;20200;-62
2023/03/13 02:33:04;;;;;;;13.23;3.33;;;7.80;99.90;;;-141.84;75.49;19171.66;5073988;28;20209;-59
2023/03/13 02:35:35;;;;;;;10.30;3.73;;;7.80;99.90;;;-141.84;75.17;19167.59;5073791;28;20589;-60
2023/03/13 02:38:09;;;;;;;10.77;3.27;;;7.80;99.90;;;-141.84;74.66;19163.53;5073048;28;20266;-59
2023/03/13 02:40:45;;;;;;;10.17;3.40;;;7.90;99.90;;;-141.84;74.96;19165.56;5070713;28;20199;-59
2023/03/13 02:43:21;;;;;;;11.93;3.60;;;7.90;99.90;;;-141.84;74.85;19175.72;5069195;28;20228;-59
2023/03/13 02:46:05;;;;;;;8.60;3.57;;;7.90;99.90;;;-141.84;74.74;19194.03;5071978;28;20203;-60
2023/03/13 02:48:37;;;;;;;9.93;3.23;;;7.90;99.90;;;-141.84;74.98;19185.88;5071897;28;20695;-59
2023/03/13 02:51:16;;;;;;;11.30;2.83;;;7.90;99.90;;;-141.84;74.62;19185.88;5071983;28;20196;-62
2023/03/13 02:53:48;;;;;;;9.03;3.47;;;7.90;99.90;;;-141.84;75.14;19189.97;5071308;28;20197;-60
2023/03/13 02:56:21;;;;;;;9.67;3.53;;;7.80;99.90;;;-141.84;75.05;19159.47;5072606;28;20185;-60
2023/03/13 02:58:50;;;;;;;10.20;3.20;;;7.80;99.90;;;-141.84;75.52;19194.03;5072928;28;20193;-61
2023/03/13 03:01:18;;;;;;;11.87;3.30;;;7.80;99.90;;;-141.84;75.31;19145.25;5072978;28;20360;-60
2023/03/13 03:03:47;;;;;;;8.93;2.97;;;7.80;99.90;;;-141.84;75.03;19151.34;5073160;28;20283;-59
2023/03/13 03:06:15;;;;;;;12.57;3.93;;;7.80;99.90;;;-141.84;75.34;19167.59;5073641;28;20197;-61
2023/03/13 03:08:44;;;;;;;13.33;3.60;;;7.80;99.90;;;-141.84;75.19;19204.19;5072990;28;20197;-62
2023/03/13 03:11:12;;;;;;;8.73;3.43;;;7.80;99.90;;;-141.84;75.34;19161.50;5072796;28;20200;-62
2023/03/13 03:13:42;;;;;;;11.07;3.60;;;7.80;99.90;;;-141.84;75.16;19181.81;5069676;28;20548;-59
2023/03/13 03:16:17;;;;;;;10.37;3.47;;;7.80;99.90;;;-141.84;75.42;19163.53;5072567;28;20205;-61
2023/03/13 03:18:46;;;;;;;8.80;3.10;;;7.80;99.90;;;-141.84;74.69;19216.38;5073045;28;20276;-59
2023/03/13 03:21:14;;;;;;;9.13;3.13;;;7.90;99.90;;;-141.84;74.09;19185.88;5072423;28;20248;-63
2023/03/13 03:23:42;;;;;;;10.77;3.87;;;7.90;99.90;;;-141.84;73.80;19189.97;5072240;28;20193;-60
2023/03/13 03:26:10;;;;;;;10.23;3.17;;;8.00;99.90;;;-141.84;74.81;19220.44;5072561;28;20205;-59
2023/03/13 03:28:38;;;;;;;12.90;3.40;;;8.00;99.90;;;-141.84;74.52;19206.22;5070796;28;20576;-60
2023/03/13 03:31:10;;;;;;;8.67;3.30;;;8.00;99.90;;;-141.84;74.28;19200.13;5072600;28;20283;-61
2023/03/13 03:33:39;;;;;;;15.27;3.47;;;8.00;99.90;;;-141.84;73.47;19196.06;5071802;28;20288;-60
2023/03/13 03:36:12;;;;;;;11.77;3.50;;;8.10;99.90;;;-141.84;73.24;19210.28;5072138;28;20208;-60
2023/03/13 03:38:41;;;;;;;12.60;3.17;;;8.20;99.90;;;-141.84;73.17;19218.41;5071784;28;20219;-61
2023/03/13 03:41:12;;;;;;;11.00;3.90;;;8.30;99.90;;;-141.84;73.32;19200.13;5072634;28;20205;-58
2023/03/13 03:43:42;;;;;;;10.57;3.70;;;8.30;99.90;;;-141.84;73.82;19198.09;5072342;28;20193;-60
2023/03/13 03:46:11;;;;;;;12.63;2.97;;;8.20;99.90;;;-141.84;73.94;19202.16;5072118;28;20201;-60
2023/03/13 03:48:40;;;;;;;10.23;4.07;;;8.20;99.90;;;-141.84;74.10;19204.19;5069154;28;20196;-59
2023/03/13 03:51:08;;;;;;;10.93;3.20;;;8.10;99.90;;;-141.84;73.94;19200.13;5072153;28;20204;-61
2023/03/13 03:53:36;;;;;;;10.37;3.30;;;8.10;99.90;;;-141.84;73.73;19169.63;5071185;28;20193;-60
2023/03/13 03:56:05;;;;;;;12.50;3.67;;;8.10;99.90;;;-141.84;73.23;19222.47;5071835;28;20213;-61
2023/03/13 03:58:34;;;;;;;11.10;2.90;;;8.20;99.90;;;-141.84;73.18;19244.81;5071478;28;20235;-60
2023/03/13 04:01:02;;;;;;;10.43;3.60;;;8.20;99.90;;;-141.84;73.33;19250.91;5071845;28;20197;-60
2023/03/13 04:03:32;;;;;;;12.07;3.33;;;8.30;99.90;;;-141.84;73.17;19271.25;5072098;28;20193;-60
2023/03/13 04:06:00;;;;;;;12.37;2.97;;;8.20;99.90;;;-141.84;73.19;19269.22;5071833;28;20637;-61
2023/03/13 04:08:28;;;;;;;10.67;3.00;;;8.30;99.90;;;-141.84;72.78;19238.72;5071526;28;20554;-60
2023/03/13 04:10:57;;;;;;;8.27;3.20;;;8.40;99.90;;;-141.84;73.17;19236.69;5071782;28;20204;-60
2023/03/13 04:13:25;;;;;;;12.17;3.27;;;8.30;99.90;;;-141.84;73.41;19242.78;5071719;28;20205;-60
2023/03/13 04:15:53;;;;;;;13.17;3.57;;;8.30;99.90;;;-141.84;72.84;19228.56;5070902;28;20543;-62
2023/03/13 04:18:21;;;;;;;10.13;3.73;;;8.30;99.90;;;-141.84;73.41;19212.31;5070349;28;20703;-58
2023/03/13 04:20:59;;;;;;;9.90;3.20;;;8.30;99.90;;;-141.84;73.83;19248.88;5070534;28;20231;-60
2023/03/13 04:23:27;;;;;;;9.57;3.17;;;8.20;99.90;;;-141.84;74.19;19236.69;5069951;28;20201;-59
2023/03/13 04:25:56;;;;;;;9.53;3.33;;;8.20;99.90;;;-141.84;73.99;19216.38;5071792;28;20210;-62
2023/03/13 04:28:24;;;;;;;11.17;3.07;;;8.20;99.90;;;-141.84;74.02;19187.91;5071022;28;20677;-61
2023/03/13 04:30:56;;;;;;;9.43;2.80;;;8.20;99.90;;;-141.84;73.64;19222.47;5071338;28;20201;-60
2023/03/13 04:33:24;;;;;;;7.53;2.93;;;8.30;99.90;;;-141.84;73.26;19216.38;5071445;28;20197;-62
2023/03/13 04:35:54;;;;;;;11.07;3.20;;;8.30;99.90;;;-141.84;73.53;19244.81;5069965;28;20189;-60
2023/03/13 04:38:22;;;;;;;11.37;3.03;;;8.30;99.90;;;-141.84;73.33;19257.00;5071015;28;20219;-61
2023/03/13 04:40:50;;;;;;;10.20;2.87;;;8.40;99.90;;;-141.84;74.36;19208.25;5070838;28;20197;-60
2023/03/13 04:43:18;;;;;;;9.07;3.20;;;8.30;99.90;;;-141.84;75.03;19192.00;5067722;28;20200;-62
2023/03/13 04:45:46;;;;;;;12.73;3.00;;;8.20;99.90;;;-141.84;75.59;19171.66;5070492;28;20322;-61
2023/03/13 04:48:15;;;;;;;11.87;3.53;;;8.10;99.90;;;-141.84;76.00;19161.50;5071134;28;20189;-61
2023/03/13 04:50:43;;;;;;;9.30;3.23;;;8.10;99.90;;;-141.84;76.06;19196.06;5070886;28;20204;-61
2023/03/13 04:53:12;;;;;;;8.23;2.93;;;8.00;99.90;;;-141.84;76.18;19200.13;5067843;28;20209;-60
2023/03/13 04:55:41;;;;;;;11.67;3.27;;;8.00;99.90;;;-141.84;76.19;19185.88;5070549;28;20697;-60
2023/03/13 04:58:09;;;;;;;11.83;3.33;;;8.00;99.90;;;-141.84;75.34;19212.31;5070050;28;20995;-59
2023/03/13 05:00:40;;;;;;;11.10;3.33;;;8.10;99.90;;;-141.84;76.05;19202.16;5070786;28;20204;-61
2023/03/13 05:03:08;;;;;;;6.67;2.60;;;8.10;99.90;;;-141.84;76.36;19210.28;5071239;28;20208;-60
2023/03/13 05:05:37;;;;;;;13.17;3.10;;;8.00;99.90;;;-141.84;76.00;19204.19;5070912;28;20227;-60
2023/03/13 05:08:05;;;;;;;9.03;2.50;;;8.00;99.90;;;-141.84;76.17;19151.34;5071008;28;20201;-62
2023/03/13 05:10:35;;;;;;;8.73;2.57;;;8.00;99.90;;;-141.84;76.42;19187.91;5070479;28;20197;-60
2023/03/13 05:13:03;;;;;;;13.00;3.00;;;8.00;99.90;;;-141.84;76.66;19187.91;5070363;28;20831;-60
2023/03/13 05:15:31;;;;;;;9.63;4.23;;;8.00;99.90;;;-141.84;76.72;19189.97;5070685;28;20561;-61
2023/03/13 05:17:59;;;;;;;8.43;2.80;;;8.00;99.90;;;-141.84;76.84;19206.22;5069195;28;20243;-61
2023/03/13 05:20:27;;;;;;;8.23;2.83;;;8.00;99.90;;;-141.84;76.95;19187.91;5070331;28;20700;-61
2023/03/13 05:22:55;;;;;;;10.30;3.30;;;8.00;99.90;;;-141.84;76.58;19218.41;5070296;28;20204;-60
2023/03/13 05:25:23;;;;;;;10.03;3.20;;;8.00;99.90;;;-141.84;76.55;19194.03;5070141;28;20212;-60
2023/03/13 05:27:53;;;;;;;9.07;3.20;;;8.10;99.90;;;-141.84;77.05;19173.69;5065535;28;20199;-60
2023/03/13 05:30:22;;;;;;;9.33;3.00;;;8.10;99.90;;;-141.84;75.79;19250.91;5070208;28;20197;-61
2023/03/13 05:32:50;;;;;;;8.57;3.23;;;8.10;99.90;;;-141.84;75.40;19222.47;5068963;28;20193;-60
2023/03/13 05:35:18;;;;;;;12.20;3.70;;;8.30;99.90;;;-141.84;75.24;19214.34;5065911;28;20200;-59
2023/03/13 05:37:46;;;;;;;11.17;3.30;;;8.30;99.90;;;-141.84;75.16;19238.72;5068439;28;20217;-61
2023/03/13 05:40:15;;;;;;;11.13;3.03;;;8.40;99.90;;;-141.84;75.87;19187.91;5069031;28;20560;-61
2023/03/13 05:42:44;;;;;;;14.17;3.77;;;8.40;99.90;;;-141.84;75.58;19206.22;5068554;28;20556;-60
2023/03/13 05:45:14;;;;;;;11.80;3.30;;;8.40;99.90;;;-141.84;74.82;19236.69;5068435;28;20205;-60
2023/03/13 05:47:42;;;;;;;8.30;3.20;;;8.50;99.90;;;-141.84;75.06;19196.06;5068602;28;20211;-61
2023/03/13 05:50:11;;;;;;;10.60;3.10;;;8.40;99.90;;;-141.84;75.76;19226.53;5069139;28;20563;-60
2023/03/13 05:52:39;;;;;;;13.10;3.10;;;8.40;99.90;;;-141.84;75.45;19214.34;5068075;28;20590;-60
2023/03/13 05:55:09;;;;;;;9.27;3.43;;;8.40;99.90;;;-141.84;75.11;19220.44;5068113;28;20205;-60
2023/03/13 05:57:38;;;;;;;9.90;3.43;;;8.40;99.90;;;-141.84;75.58;19214.34;5068008;28;20200;-61
2023/03/13 06:00:08;;;;;;;11.07;3.13;;;8.40;99.90;;;-141.84;75.20;19242.78;5067116;28;20209;-60
2023/03/13 06:02:37;;;;;;;9.67;3.20;;;8.50;99.90;;;-141.84;75.56;19228.56;5068602;28;20196;-61
2023/03/13 06:05:06;;;;;;;9.33;2.70;;;8.50;99.90;;;-141.84;76.12;19244.81;5067643;28;20211;-59
2023/03/13 06:07:35;;;;;;;9.77;2.73;;;8.50;99.90;;;-141.84;75.81;19214.34;5068897;28;20200;-58
2023/03/13 06:10:04;;;;;;;10.07;3.20;;;8.50;99.90;;;-141.84;75.79;19218.41;5068578;28;20648;-60
2023/03/13 06:12:32;;;;;;;11.77;3.30;;;8.60;99.90;;;-141.84;76.87;19232.63;5066060;28;20201;-59
2023/03/13 06:15:00;;;;;;;6.73;2.40;;;8.60;99.90;;;-141.84;77.00;19222.47;5066854;28;20204;-61
2023/03/13 06:17:28;;;;;;;10.70;2.90;;;8.60;99.90;;;-141.84;77.49;19198.09;5067659;28;20207;-61
2023/03/13 06:19:58;;;;;;;11.07;2.93;;;8.60;99.90;;;-141.84;77.11;19212.31;5067370;28;20228;-60
2023/03/13 06:22:26;;;;;;;9.40;2.83;;;8.70;99.90;;;-141.84;77.77;19206.22;5066544;28;20205;-61
2023/03/13 06:24:55;;;;;;;9.87;3.17;;;8.70;99.90;;;-141.84;78.23;19181.81;5067982;28;20197;-60
2023/03/13 06:27:24;;;;;;;8.53;2.73;;;8.60;99.90;;;-141.84;78.97;19181.81;5068250;28;20200;-60
2023/03/13 06:29:52;;;;;;;12.83;2.93;;;8.60;99.90;;;-141.84;79.36;19177.75;5067463;28;20715;-60
2023/03/13 06:32:20;;;;;;;13.43;3.60;;;8.60;99.90;;;-141.84;80.53;19155.41;5067606;28;20199;-60
2023/03/13 06:34:48;;;;;;;12.80;3.07;;;8.50;99.90;;;-141.84;80.14;19183.84;5068572;28;20254;-61
2023/03/13 06:37:18;;;;;;;11.47;3.37;;;8.60;99.90;;;-141.84;80.32;19183.84;5067848;28;20326;-60
2023/03/13 06:39:46;;;;;;;9.13;3.00;;;8.60;99.90;;;-141.84;81.24;19175.72;5065018;28;20728;-60
2023/03/13 06:42:14;;;;;;;9.03;3.10;;;8.50;99.90;;;-141.84;80.51;19204.19;5067783;28;20205;-60
2023/03/13 06:44:43;;;;;;;8.17;3.27;;;8.60;99.90;;;-141.84;79.95;19175.72;5067435;28;20197;-61
2023/03/13 06:47:11;;;;;;;10.83;3.43;;;8.70;99.90;;;-141.84;80.92;19181.81;5066964;28;20208;-60
2023/03/13 06:49:42;;;;;;;7.63;3.00;;;8.60;99.90;;;-141.84;81.43;19198.09;5067807;28;20197;-59
2023/03/13 06:52:10;;;;;;;9.93;3.00;;;8.60;99.90;;;-141.84;79.71;19210.28;5067854;28;20204;-60
2023/03/13 06:54:40;;;;;;;10.70;2.70;;;8.70;99.90;;;-141.84;80.44;19192.00;5068026;28;20193;-60
2023/03/13 06:57:08;;;;;;;10.77;2.73;;;8.70;99.90;;;-141.84;80.70;19189.97;5067572;28;20203;-62
2023/03/13 06:59:36;;;;;;;6.57;2.70;;;8.70;99.90;;;-141.84;79.59;19192.00;5067556;28;20220;-60
2023/03/13 07:02:05;;;;;;;8.03;2.60;;;8.80;99.90;;;-141.84;79.46;19167.59;5067405;28;20197;-60
2023/03/13 07:04:33;;;;;;;6.87;2.43;;;8.90;99.90;;;-141.84;79.14;19204.19;5067582;28;20215;-60
2023/03/13 07:07:01;;;;;;;10.87;2.57;;;8.80;99.90;;;-141.84;79.07;19226.53;5067610;28;20576;-59
2023/03/13 07:09:29;;;;;;;6.97;2.70;;;8.90;99.90;;;-141.84;78.54;19220.44;5070269;28;20201;-59
2023/03/13 07:11:59;;;;;;;6.13;2.33;;;9.00;99.90;;;-141.84;78.25;19196.06;5071530;28;20283;-60
2023/03/13 07:14:27;;;;;;;7.03;2.43;;;9.00;99.90;;;-141.84;78.23;19216.38;5072036;28;20215;-59
2023/03/13 07:16:56;;;;;;;8.53;2.67;;;9.00;99.90;;;-141.84;76.87;19250.91;5071779;28;20193;-59
2023/03/13 07:19:26;;;;;;;6.17;2.37;;;9.10;99.90;;;-141.84;76.81;19250.91;5070757;28;20221;-59
2023/03/13 07:21:55;;;;;;;9.30;2.80;;;9.20;99.90;;;-141.84;75.95;19305.78;5056295;28;20217;-62
2023/03/13 07:24:24;;;;;;;10.30;2.60;;;9.30;99.90;;;-141.84;75.75;19287.50;5052007;28;20194;-60
2023/03/13 07:26:53;;;;;;;7.43;2.27;;;9.40;99.90;;;-141.84;75.46;19317.97;5055720;28;20224;-60
2023/03/13 07:29:35;;;;;;;8.20;2.60;;;9.40;99.90;;;-141.84;75.19;19301.72;5055210;28;20188;-61
2023/03/13 07:32:04;;;;;;;5.33;2.50;;;9.50;99.90;;;-141.84;75.06;19281.41;5056122;28;20196;-61
2023/03/13 07:34:32;;;;;;;7.40;2.37;;;9.50;99.90;;;-141.84;74.64;19336.25;5054331;28;20616;-61
2023/03/13 07:37:00;;;;;;;6.20;2.20;;;9.60;99.90;;;-141.84;74.12;19372.84;5053345;28;20201;-60
2023/03/13 07:39:29;;;;;;;8.00;2.30;;;9.70;99.90;;;-141.84;73.70;19354.56;5057318;28;20232;-60
2023/03/13 07:41:57;;;;;;;7.07;2.20;;;9.80;99.90;;;-141.84;73.79;19356.59;5055939;28;20200;-61
2023/03/13 07:44:25;;;;;;;7.97;2.40;;;9.80;99.90;;;-141.84;74.57;19338.28;5054469;28;20206;-59
2023/03/13 07:46:54;;;;;;;5.33;2.13;;;9.80;99.90;;;-141.84;74.29;19346.44;5053241;28;20205;-61
2023/03/13 07:49:23;;;;;;;5.53;2.00;;;9.80;99.90;;;-141.84;74.41;19326.09;5053626;28;20296;-62
2023/03/13 07:51:51;;;;;;;7.20;1.80;;;9.90;99.90;;;-141.84;74.03;19356.59;5054760;28;20198;-61
2023/03/13 07:54:19;;;;;;;3.60;1.57;;;10.00;99.90;;;-141.84;73.54;19364.72;5055409;28;20209;-60
2023/03/13 07:56:47;;;;;;;3.43;1.50;;;10.10;99.90;;;-141.84;73.33;19387.06;5053939;28;20206;-60
2023/03/13 07:59:16;;;;;;;4.20;1.70;;;10.20;99.90;;;-141.84;73.09;19395.19;5055630;28;20584;-60
2023/03/13 08:01:44;;;;;;;2.83;1.43;;;10.20;99.90;;;-141.84;73.27;19374.88;5053810;28;20197;-61
2023/03/13 08:04:14;;;;;;;3.13;1.30;;;10.30;99.90;;;-141.84;72.59;19366.75;5055228;28;20565;-61
2023/03/13 08:06:42;;;;;;;3.60;1.27;;;10.50;99.90;;;-141.84;72.40;19389.09;5050698;28;20662;-60
2023/03/13 08:09:10;;;;;;;4.20;1.40;;;10.60;99.90;;;-141.84;72.55;19419.59;5055697;28;20220;-60
2023/03/13 08:11:40;;;;;;;3.13;1.37;;;10.60;99.90;;;-141.84;72.73;19395.19;5055315;28;20637;-60
2023/03/13 08:14:09;;;;;;;4.30;1.40;;;10.60;99.90;;;-141.84;72.50;19452.09;5055701;28;20221;-60
2023/03/13 08:16:37;;;;;;;2.30;1.20;;;10.60;99.90;;;-141.84;73.65;19395.19;5049827;28;20680;-59
2023/03/13 08:19:06;;;;;;;2.60;1.17;;;10.50;99.90;;;-141.84;73.96;19399.25;5041696;28;20274;-59
2023/03/13 08:21:37;;;;;;;2.83;1.20;;;10.40;99.90;;;-141.84;73.46;19397.22;5053092;28;20229;-60
2023/03/13 08:24:09;;;;;;;2.60;1.23;;;10.50;99.90;;;-141.84;73.97;19364.72;5053883;28;20198;-59
2023/03/13 08:26:40;;;;;;;2.93;1.53;;;10.50;99.90;;;-141.84;73.69;19399.25;5043523;28;20281;-60
2023/03/13 08:29:12;;;;;;;3.60;1.67;;;10.50;99.90;;;-141.84;74.21;19376.91;5044704;28;20205;-59
2023/03/13 08:31:46;;;;;;;2.83;1.63;;;10.40;99.90;;;-141.84;74.15;19383.00;5053693;28;20669;-60
2023/03/13 08:34:16;;;;;;;3.00;1.13;;;10.40;99.90;;;-141.84;74.37;19401.28;5045943;28;20194;-62
2023/03/13 08:36:47;;;;;;;3.43;1.23;;;10.50;99.90;;;-141.84;75.63;19364.72;5052903;28;20198;-60
2023/03/13 08:39:17;;;;;;;5.13;1.30;;;10.40;99.90;;;-141.84;75.93;19362.69;5053729;28;20669;-59
2023/03/13 08:41:46;;;;;;;5.50;1.93;;;10.40;99.90;;;-141.84;76.77;19370.81;5051650;28;20189;-60
2023/03/13 08:44:19;;;;;;;5.57;1.70;;;10.30;99.90;;;-141.84;76.65;19326.09;5044648;28;20214;-59
2023/03/13 08:46:48;;;;;;;8.60;3.77;;;10.20;99.90;;;-141.84;75.92;19389.09;5049438;28;20674;-59
2023/03/13 08:49:17;;;;;;;4.37;1.30;;;10.30;99.90;;;-141.84;75.91;19362.69;5053817;28;20328;-62
2023/03/13 08:51:46;;;;;;;3.60;1.10;;;10.30;99.90;;;-141.84;75.93;19352.53;5047991;28;20202;-59
2023/03/13 08:54:15;;;;;;;2.10;1.13;;;10.30;99.90;;;-141.84;76.20;19344.41;5045064;28;20198;-61
2023/03/13 08:56:43;;;;;;;4.00;1.33;;;10.30;99.90;;;-141.84;76.36;19326.09;5041612;28;20650;-60
2023/03/13 08:59:11;;;;;;;2.13;1.13;;;10.30;99.90;;;-141.84;76.37;19352.53;5054470;28;20209;-60
2023/03/13 09:01:39;;;;;;;3.60;1.30;;;10.30;99.90;;;-141.84;75.84;19350.50;5042572;28;20225;-60
2023/03/13 09:04:08;;;;;;;5.30;1.87;;;10.30;99.90;;;-141.84;75.16;19376.91;5043678;28;20208;-60
2023/03/13 09:06:38;;;;;;;3.33;1.10;;;10.40;99.90;;;-141.84;75.45;19374.88;5049837;28;20208;-60
2023/03/13 09:09:09;;;;;;;3.83;1.40;;;10.40;99.90;;;-141.84;76.36;19326.09;5050337;28;20213;-61
2023/03/13 09:11:39;;;;;;;2.13;1.17;;;10.40;99.90;;;-141.84;76.11;19393.16;5046688;28;20193;-59
2023/03/13 09:14:10;;;;;;;2.27;1.00;;;10.30;99.90;;;-141.84;76.21;19403.31;5053207;28;20210;-61
2023/03/13 09:16:38;;;;;;;2.30;1.10;;;10.40;99.90;;;-141.84;75.62;19336.25;5047546;28;20195;-60
2023/03/13 09:19:06;;;;;;;2.17;1.03;;;10.40;99.90;;;-141.84;75.48;19393.16;5045082;28;20202;-60
2023/03/13 09:21:36;;;;;;;2.97;1.20;;;10.40;99.90;;;-141.84;74.97;19407.38;5066095;28;20232;-61
2023/03/13 09:24:04;;;;;;;1.57;1.10;;;10.50;99.90;;;-141.84;75.16;19413.47;5066883;28;20194;-59
2023/03/13 09:26:34;;;;;;;2.87;1.30;;;10.50;99.90;;;-141.84;75.66;19391.13;5050880;28;20208;-59
2023/03/13 09:29:02;;;;;;;1.90;1.20;;;10.50;99.90;;;-141.84;75.33;19415.50;5066929;28;20197;-60
2023/03/13 09:31:33;;;;;;;2.50;1.40;;;10.60;99.90;;;-141.84;75.61;19395.19;5068822;28;20196;-60
2023/03/13 09:34:01;;;;;;;2.70;1.43;;;10.60;99.90;;;-141.84;74.55;19421.63;5061009;28;20664;-60
2023/03/13 09:36:30;;;;;;;1.17;1.00;;;10.80;99.90;;;-141.84;73.64;19466.31;5053145;28;20312;-60
2023/03/13 09:39:00;;;;;;;1.07;0.90;;;10.90;99.90;;;-141.84;73.73;19450.06;5067181;28;20216;-60
2023/03/13 09:41:36;;;;;;;2.17;1.20;;;11.00;99.90;;;-141.84;73.41;19460.22;5068591;28;20232;-60
2023/03/13 09:44:13;;;;;;;1.10;1.00;;;11.20;99.90;;;-141.84;72.48;19496.81;5068226;28;20200;-60
2023/03/13 09:46:56;;;;;;;1.20;1.00;;;11.40;99.90;;;-141.84;71.98;19529.31;5067335;28;20271;-60
2023/03/13 09:49:34;;;;;;;0.83;0.80;;;11.60;99.90;;;-141.84;71.51;19500.88;5067806;28;20197;-59
2023/03/13 09:52:15;;;;;;;1.63;0.80;;;11.70;99.90;;;-141.84;71.86;19511.03;5067830;28;20219;-60
2023/03/13 09:54:52;;;;;;;1.10;0.90;;;11.70;99.90;;;-141.84;71.94;19519.16;5067929;28;20201;-60
2023/03/13 09:57:31;;;;;;;1.20;1.10;;;11.80;99.90;;;-141.84;71.52;19559.81;5068096;28;20200;-59
2023/03/13 10:00:10;;;;;;;1.33;1.23;;;11.90;99.90;;;-141.84;71.88;19529.31;5065756;28;20231;-59
2023/03/13 10:02:39;;;;;;;1.43;1.10;;;11.80;99.90;;;-141.84;72.46;19525.25;5065274;28;20231;-61
2023/03/13 10:05:16;;;;;;;1.27;0.80;;;11.80;99.90;;;-141.84;72.76;19545.56;5067535;28;20649;-62
2023/03/13 10:07:45;;;;;;;2.38;1.20;;;11.80;99.90;;;-141.84;72.30;19529.31;5065128;28;20192;-60
2023/03/13 10:10:21;;;;;;;1.30;0.90;;;11.80;99.90;;;-141.84;71.81;19574.03;5062720;28;20193;-61
2023/03/13 10:13:02;;;;;;;1.00;0.80;;;11.90;99.90;;;-141.84;72.75;19515.09;5068374;28;20199;-59
2023/03/13 10:15:42;;;;;;;0.93;0.82;;;11.80;99.90;;;-141.84;72.55;19557.78;5068001;28;20201;-61
2023/03/13 10:18:18;;;;;;;1.20;1.00;;;11.80;99.90;;;-141.84;72.24;19557.78;5067744;28;20192;-60
2023/03/13 10:20:50;;;;;;;1.48;1.10;;;11.90;99.90;;;-141.84;72.32;19543.53;5066769;28;20228;-60